sensor_id;sensor_type;location;lat;lon;timestamp;pressure;altitude;pressure_sealevel;temperature;humidity
23223;BME280;11780;13.904;100.620;2023-02-16T00:01:22;101394.41;;;28.84;68.30
23223;BME280;11780;13.904;100.620;2023-02-16T00:03:53;101398.28;;;28.83;68.20
23223;BME280;11780;13.904;100.620;2023-02-16T00:06:27;101398.53;;;28.86;68.18
23223;BME280;11780;13.904;100.620;2023-02-16T00:08:57;101407.97;;;28.80;68.38
23223;BME280;11780;13.904;100.620;2023-02-16T00:11:30;101412.66;;;28.80;68.31
23223;BME280;11780;13.904;100.620;2023-02-16T00:14:20;101412.34;;;28.81;68.22
23223;BME280;11780;13.904;100.620;2023-02-16T00:16:57;101423.91;;;28.83;68.39
23223;BME280;11780;13.904;100.620;2023-02-16T00:19:32;101426.13;;;28.81;68.28
23223;BME280;11780;13.904;100.620;2023-02-16T00:22:04;101434.38;;;28.81;68.37
23223;BME280;11780;13.904;100.620;2023-02-16T00:24:34;101429.75;;;28.77;68.62
23223;BME280;11780;13.904;100.620;2023-02-16T00:27:12;101442.69;;;28.76;68.63
23223;BME280;11780;13.904;100.620;2023-02-16T00:29:45;101446.50;;;28.80;68.51
23223;BME280;11780;13.904;100.620;2023-02-16T00:32:15;101448.16;;;28.81;68.85
23223;BME280;11780;13.904;100.620;2023-02-16T00:34:45;101447.84;;;28.83;68.57
23223;BME280;11780;13.904;100.620;2023-02-16T00:37:15;101455.81;;;28.84;68.77
23223;BME280;11780;13.904;100.620;2023-02-16T00:39:47;101462.72;;;28.82;68.87
23223;BME280;11780;13.904;100.620;2023-02-16T00:42:19;101466.31;;;28.82;68.72
23223;BME280;11780;13.904;100.620;2023-02-16T00:44:52;101467.44;;;28.81;68.71
23223;BME280;11780;13.904;100.620;2023-02-16T00:47:38;101466.00;;;28.84;68.76
23223;BME280;11780;13.904;100.620;2023-02-16T00:50:21;101470.19;;;28.81;68.74
23223;BME280;11780;13.904;100.620;2023-02-16T00:52:52;101476.22;;;28.83;68.67
23223;BME280;11780;13.904;100.620;2023-02-16T00:55:25;101479.00;;;28.78;68.84
23223;BME280;11780;13.904;100.620;2023-02-16T00:58:24;101482.34;;;28.75;68.97
23223;BME280;11780;13.904;100.620;2023-02-16T01:01:02;101487.56;;;28.77;68.94
23223;BME280;11780;13.904;100.620;2023-02-16T01:03:35;101488.97;;;28.74;68.76
23223;BME280;11780;13.904;100.620;2023-02-16T01:06:06;101495.31;;;28.75;68.89
23223;BME280;11780;13.904;100.620;2023-02-16T01:09:05;101505.44;;;28.79;68.95
23223;BME280;11780;13.904;100.620;2023-02-16T01:11:54;101507.38;;;28.79;68.84
23223;BME280;11780;13.904;100.620;2023-02-16T01:14:25;101505.97;;;28.81;68.71
23223;BME280;11780;13.904;100.620;2023-02-16T01:16:55;101510.91;;;28.84;68.73
23223;BME280;11780;13.904;100.620;2023-02-16T01:19:28;101510.66;;;28.81;68.77
23223;BME280;11780;13.904;100.620;2023-02-16T01:21:58;101517.78;;;28.82;68.71
23223;BME280;11780;13.904;100.620;2023-02-16T01:24:28;101519.22;;;28.79;68.89
23223;BME280;11780;13.904;100.620;2023-02-16T01:26:57;101528.56;;;28.78;68.78
23223;BME280;11780;13.904;100.620;2023-02-16T01:29:28;101532.09;;;28.84;68.75
23223;BME280;11780;13.904;100.620;2023-02-16T01:31:58;101527.78;;;28.78;68.92
23223;BME280;11780;13.904;100.620;2023-02-16T01:34:28;101545.94;;;28.79;68.91
23223;BME280;11780;13.904;100.620;2023-02-16T01:36:58;101554.44;;;28.82;68.79
23223;BME280;11780;13.904;100.620;2023-02-16T01:39:28;101546.41;;;28.86;68.72
23223;BME280;11780;13.904;100.620;2023-02-16T01:42:17;101561.84;;;28.82;69.06
23223;BME280;11780;13.904;100.620;2023-02-16T01:44:57;101561.28;;;28.85;69.26
23223;BME280;11780;13.904;100.620;2023-02-16T01:48:03;101572.88;;;28.82;69.21
23223;BME280;11780;13.904;100.620;2023-02-16T01:50:51;101578.69;;;28.80;69.51
23223;BME280;11780;13.904;100.620;2023-02-16T01:53:34;101583.31;;;28.85;69.46
23223;BME280;11780;13.904;100.620;2023-02-16T01:56:23;101585.28;;;28.79;69.52
23223;BME280;11780;13.904;100.620;2023-02-16T02:02:51;101599.34;;;28.78;69.33
23223;BME280;11780;13.904;100.620;2023-02-16T02:05:26;101606.19;;;28.85;69.39
23223;BME280;11780;13.904;100.620;2023-02-16T02:15:58;101612.50;;;28.86;69.37
23223;BME280;11780;13.904;100.620;2023-02-16T02:18:31;101610.56;;;28.86;69.81
23223;BME280;11780;13.904;100.620;2023-02-16T02:33:36;101633.13;;;28.89;69.98
23223;BME280;11780;13.904;100.620;2023-02-16T02:36:11;101645.78;;;28.90;69.67
23223;BME280;11780;13.904;100.620;2023-02-16T02:41:26;101649.38;;;28.90;69.75
23223;BME280;11780;13.904;100.620;2023-02-16T02:44:20;101659.84;;;28.88;69.65
23223;BME280;11780;13.904;100.620;2023-02-16T02:46:54;101660.66;;;28.89;69.86
23223;BME280;11780;13.904;100.620;2023-02-16T02:49:25;101656.78;;;28.90;69.69
23223;BME280;11780;13.904;100.620;2023-02-16T02:51:55;101657.09;;;28.88;69.87
23223;BME280;11780;13.904;100.620;2023-02-16T02:54:44;101651.56;;;28.93;69.81
23223;BME280;11780;13.904;100.620;2023-02-16T02:57:47;101659.53;;;28.90;69.96
23223;BME280;11780;13.904;100.620;2023-02-16T03:00:40;101661.19;;;28.91;69.77
23223;BME280;11780;13.904;100.620;2023-02-16T03:03:19;101660.66;;;28.89;69.74
23223;BME280;11780;13.904;100.620;2023-02-16T03:05:52;101664.22;;;28.94;69.61
23223;BME280;11780;13.904;100.620;2023-02-16T03:08:26;101650.25;;;28.85;69.78
23223;BME280;11780;13.904;100.620;2023-02-16T03:14:06;101654.00;;;28.95;69.75
23223;BME280;11780;13.904;100.620;2023-02-16T03:16:44;101649.38;;;28.90;70.06
23223;BME280;11780;13.904;100.620;2023-02-16T03:19:16;101655.13;;;28.94;69.73
23223;BME280;11780;13.904;100.620;2023-02-16T03:22:05;101654.84;;;28.95;70.05
23223;BME280;11780;13.904;100.620;2023-02-16T03:24:55;101649.06;;;28.92;69.72
23223;BME280;11780;13.904;100.620;2023-02-16T03:27:45;101652.94;;;28.91;69.71
23223;BME280;11780;13.904;100.620;2023-02-16T03:30:33;101648.78;;;28.93;69.51
23223;BME280;11780;13.904;100.620;2023-02-16T03:33:03;101654.31;;;28.93;69.56
23223;BME280;11780;13.904;100.620;2023-02-16T03:35:34;101661.72;;;28.93;69.08
23223;BME280;11780;13.904;100.620;2023-02-16T03:38:04;101648.25;;;28.91;68.78
23223;BME280;11780;13.904;100.620;2023-02-16T03:40:35;101647.72;;;28.89;68.84
23223;BME280;11780;13.904;100.620;2023-02-16T03:43:09;101647.69;;;28.94;68.54
23223;BME280;11780;13.904;100.620;2023-02-16T03:45:41;101649.59;;;28.94;68.08
23223;BME280;11780;13.904;100.620;2023-02-16T03:48:12;101647.69;;;28.94;68.00
23223;BME280;11780;13.904;100.620;2023-02-16T03:50:42;101650.44;;;28.94;68.23
23223;BME280;11780;13.904;100.620;2023-02-16T03:53:13;101650.16;;;28.96;67.47
23223;BME280;11780;13.904;100.620;2023-02-16T03:55:46;101650.16;;;28.96;67.76
23223;BME280;11780;13.904;100.620;2023-02-16T03:58:20;101646.59;;;28.95;67.74
23223;BME280;11780;13.904;100.620;2023-02-16T04:00:51;101644.94;;;28.94;67.32
23223;BME280;11780;13.904;100.620;2023-02-16T04:03:21;101648.50;;;28.95;67.43
23223;BME280;11780;13.904;100.620;2023-02-16T04:05:51;101641.59;;;28.97;67.16
23223;BME280;11780;13.904;100.620;2023-02-16T04:08:21;101636.06;;;28.97;66.82
23223;BME280;11780;13.904;100.620;2023-02-16T04:10:52;101636.06;;;28.97;66.73
23223;BME280;11780;13.904;100.620;2023-02-16T04:13:24;101626.69;;;28.98;66.30
23223;BME280;11780;13.904;100.620;2023-02-16T04:15:55;101623.41;;;28.96;66.27
23223;BME280;11780;13.904;100.620;2023-02-16T04:18:24;101620.09;;;28.99;66.26
23223;BME280;11780;13.904;100.620;2023-02-16T04:20:55;101614.88;;;28.98;65.87
23223;BME280;11780;13.904;100.620;2023-02-16T04:23:25;101614.88;;;28.98;65.39
23223;BME280;11780;13.904;100.620;2023-02-16T04:25:55;101611.53;;;29.01;64.99
23223;BME280;11780;13.904;100.620;2023-02-16T04:28:31;101604.94;;;29.02;64.77
23223;BME280;11780;13.904;100.620;2023-02-16T04:31:00;101606.56;;;29.03;65.08
23223;BME280;11780;13.904;100.620;2023-02-16T04:33:31;101593.91;;;29.02;64.97
23223;BME280;11780;13.904;100.620;2023-02-16T04:36:01;101596.06;;;29.05;64.72
23223;BME280;11780;13.904;100.620;2023-02-16T04:38:31;101576.78;;;29.05;64.74
23223;BME280;11780;13.904;100.620;2023-02-16T04:41:01;101579.25;;;29.07;64.42
23223;BME280;11780;13.904;100.620;2023-02-16T04:43:31;101583.66;;;29.08;64.45
23223;BME280;11780;13.904;100.620;2023-02-16T04:46:02;101579.78;;;29.09;64.48
23223;BME280;11780;13.904;100.620;2023-02-16T04:48:32;101567.66;;;29.10;64.27
23223;BME280;11780;13.904;100.620;2023-02-16T04:51:03;101562.97;;;29.10;63.89
23223;BME280;11780;13.904;100.620;2023-02-16T04:53:33;101550.28;;;29.09;64.02
23223;BME280;11780;13.904;100.620;2023-02-16T04:56:08;101560.75;;;29.12;63.52
23223;BME280;11780;13.904;100.620;2023-02-16T04:58:40;101551.66;;;29.12;63.45
23223;BME280;11780;13.904;100.620;2023-02-16T05:01:23;101553.59;;;29.11;63.08
23223;BME280;11780;13.904;100.620;2023-02-16T05:03:54;101556.88;;;29.13;62.71
23223;BME280;11780;13.904;100.620;2023-02-16T05:06:25;101550.28;;;29.09;62.81
23223;BME280;11780;13.904;100.620;2023-02-16T05:08:55;101542.03;;;29.09;62.94
23223;BME280;11780;13.904;100.620;2023-02-16T05:11:25;101536.25;;;29.11;63.65
23223;BME280;11780;13.904;100.620;2023-02-16T05:14:28;101532.38;;;29.12;63.44
23223;BME280;11780;13.904;100.620;2023-02-16T05:17:17;101534.84;;;29.13;63.27
23223;BME280;11780;13.904;100.620;2023-02-16T05:19:54;101532.38;;;29.12;63.20
23223;BME280;11780;13.904;100.620;2023-02-16T05:22:25;101534.84;;;29.13;63.66
23223;BME280;11780;13.904;100.620;2023-02-16T05:24:57;101517.72;;;29.16;63.93
23223;BME280;11780;13.904;100.620;2023-02-16T05:27:28;101512.78;;;29.13;63.59
23223;BME280;11780;13.904;100.620;2023-02-16T05:29:58;101500.13;;;29.12;63.20
23223;BME280;11780;13.904;100.620;2023-02-16T05:32:28;101501.19;;;29.16;63.28
23223;BME280;11780;13.904;100.620;2023-02-16T05:34:58;101496.50;;;29.17;63.25
23223;BME280;11780;13.904;100.620;2023-02-16T05:37:28;101499.56;;;29.15;62.91
23223;BME280;11780;13.904;100.620;2023-02-16T05:40:00;101490.44;;;29.15;63.02
23223;BME280;11780;13.904;100.620;2023-02-16T05:42:30;101491.81;;;29.17;62.99
23223;BME280;11780;13.904;100.620;2023-02-16T05:45:00;101486.31;;;29.17;63.06
23223;BME280;11780;13.904;100.620;2023-02-16T05:47:42;101484.34;;;29.18;62.66
23223;BME280;11780;13.904;100.620;2023-02-16T05:50:13;101473.66;;;29.16;62.68
23223;BME280;11780;13.904;100.620;2023-02-16T05:52:44;101468.13;;;29.16;62.57
23223;BME280;11780;13.904;100.620;2023-02-16T05:55:14;101465.91;;;29.19;62.68
23223;BME280;11780;13.904;100.620;2023-02-16T05:57:44;101452.13;;;29.19;63.14
23223;BME280;11780;13.904;100.620;2023-02-16T06:00:14;101459.28;;;29.20;62.52
23223;BME280;11780;13.904;100.620;2023-02-16T06:02:44;101440.00;;;29.20;63.00
23223;BME280;11780;13.904;100.620;2023-02-16T06:05:14;101441.59;;;29.21;62.77
23223;BME280;11780;13.904;100.620;2023-02-16T06:07:44;101432.22;;;29.22;62.57
23223;BME280;11780;13.904;100.620;2023-02-16T06:10:16;101430.59;;;29.21;61.91
23223;BME280;11780;13.904;100.620;2023-02-16T06:12:46;101429.19;;;29.23;61.79
23223;BME280;11780;13.904;100.620;2023-02-16T06:15:16;101413.47;;;29.24;61.88
23223;BME280;11780;13.904;100.620;2023-02-16T06:17:46;101414.59;;;29.23;62.19
23223;BME280;11780;13.904;100.620;2023-02-16T06:20:18;101413.47;;;29.24;62.24
23223;BME280;11780;13.904;100.620;2023-02-16T06:22:49;101406.84;;;29.25;62.07
23223;BME280;11780;13.904;100.620;2023-02-16T06:25:19;101404.09;;;29.25;62.02
23223;BME280;11780;13.904;100.620;2023-02-16T06:27:49;101406.03;;;29.24;61.99
23223;BME280;11780;13.904;100.620;2023-02-16T06:30:20;101406.25;;;29.28;62.28
23223;BME280;11780;13.904;100.620;2023-02-16T06:32:50;101409.59;;;29.25;62.06
23223;BME280;11780;13.904;100.620;2023-02-16T06:35:22;101398.59;;;29.25;62.17
23223;BME280;11780;13.904;100.620;2023-02-16T06:37:52;101395.25;;;29.28;61.93
23223;BME280;11780;13.904;100.620;2023-02-16T06:40:24;101386.16;;;29.27;61.83
23223;BME280;11780;13.904;100.620;2023-02-16T06:42:54;101377.59;;;29.29;62.20
23223;BME280;11780;13.904;100.620;2023-02-16T06:45:24;101377.59;;;29.29;62.29
23223;BME280;11780;13.904;100.620;2023-02-16T06:47:54;101371.50;;;29.32;62.03
23223;BME280;11780;13.904;100.620;2023-02-16T06:50:24;101366.78;;;29.32;62.22
23223;BME280;11780;13.904;100.620;2023-02-16T06:52:54;101369.84;;;29.31;62.07
23223;BME280;11780;13.904;100.620;2023-02-16T06:55:24;101356.59;;;29.33;61.39
23223;BME280;11780;13.904;100.620;2023-02-16T06:57:55;101347.22;;;29.34;61.80
23223;BME280;11780;13.904;100.620;2023-02-16T07:00:25;101339.78;;;29.35;61.32
23223;BME280;11780;13.904;100.620;2023-02-16T07:02:56;101333.16;;;29.36;61.09
23223;BME280;11780;13.904;100.620;2023-02-16T07:05:27;101328.44;;;29.36;61.05
23223;BME280;11780;13.904;100.620;2023-02-16T07:07:58;101329.59;;;29.35;60.98
23223;BME280;11780;13.904;100.620;2023-02-16T07:10:28;101316.84;;;29.39;60.80
23223;BME280;11780;13.904;100.620;2023-02-16T07:13:15;101323.47;;;29.38;61.01
23223;BME280;11780;13.904;100.620;2023-02-16T07:15:45;101299.78;;;29.37;61.11
23223;BME280;11780;13.904;100.620;2023-02-16T07:18:15;101302.53;;;29.37;60.57
23223;BME280;11780;13.904;100.620;2023-02-16T07:20:46;101294.78;;;29.39;60.48
23223;BME280;11780;13.904;100.620;2023-02-16T07:23:16;101282.97;;;29.39;60.41
23223;BME280;11780;13.904;100.620;2023-02-16T07:25:46;101283.16;;;29.42;60.31
23223;BME280;11780;13.904;100.620;2023-02-16T07:28:17;101268.88;;;29.40;60.80
23223;BME280;11780;13.904;100.620;2023-02-16T07:30:47;101272.47;;;29.41;60.92
23223;BME280;11780;13.904;100.620;2023-02-16T07:33:17;101267.47;;;29.43;60.34
23223;BME280;11780;13.904;100.620;2023-02-16T07:35:48;101258.38;;;29.42;60.65
23223;BME280;11780;13.904;100.620;2023-02-16T07:38:19;101259.47;;;29.41;60.84
23223;BME280;11780;13.904;100.620;2023-02-16T07:40:48;101251.22;;;29.41;60.64
23223;BME280;11780;13.904;100.620;2023-02-16T07:43:18;101253.69;;;29.43;61.03
23223;BME280;11780;13.904;100.620;2023-02-16T07:45:48;101247.88;;;29.44;60.88
23223;BME280;11780;13.904;100.620;2023-02-16T07:48:20;101236.00;;;29.44;61.30
23223;BME280;11780;13.904;100.620;2023-02-16T07:50:50;101234.41;;;29.43;61.31
23223;BME280;11780;13.904;100.620;2023-02-16T07:53:20;101229.69;;;29.43;61.92
23223;BME280;11780;13.904;100.620;2023-02-16T07:55:50;101229.69;;;29.43;61.13
23223;BME280;11780;13.904;100.620;2023-02-16T07:58:20;101220.31;;;29.44;61.44
23223;BME280;11780;13.904;100.620;2023-02-16T08:01:05;101217.84;;;29.43;60.95
23223;BME280;11780;13.904;100.620;2023-02-16T08:03:36;101220.31;;;29.44;61.00
23223;BME280;11780;13.904;100.620;2023-02-16T08:06:06;101207.63;;;29.43;61.03
23223;BME280;11780;13.904;100.620;2023-02-16T08:08:38;101202.13;;;29.43;60.89
23223;BME280;11780;13.904;100.620;2023-02-16T08:11:17;101201.53;;;29.46;60.73
23223;BME280;11780;13.904;100.620;2023-02-16T08:13:48;101210.06;;;29.45;60.71
23223;BME280;11780;13.904;100.620;2023-02-16T08:16:21;101208.16;;;29.45;60.91
23223;BME280;11780;13.904;100.620;2023-02-16T08:18:55;101203.16;;;29.47;60.34
23223;BME280;11780;13.904;100.620;2023-02-16T08:21:30;101203.16;;;29.47;61.31
23223;BME280;11780;13.904;100.620;2023-02-16T08:24:03;101196.81;;;29.47;60.41
23223;BME280;11780;13.904;100.620;2023-02-16T08:26:39;101198.16;;;29.50;61.10
23223;BME280;11780;13.904;100.620;2023-02-16T08:29:10;101199.28;;;29.49;61.23
23223;BME280;11780;13.904;100.620;2023-02-16T08:31:41;101200.09;;;29.49;60.93
23223;BME280;11780;13.904;100.620;2023-02-16T08:34:13;101196.00;;;29.46;61.61
23223;BME280;11780;13.904;100.620;2023-02-16T08:36:45;101188.03;;;29.45;61.85
23223;BME280;11780;13.904;100.620;2023-02-16T08:39:18;101188.34;;;29.43;61.10
23223;BME280;11780;13.904;100.620;2023-02-16T08:41:49;101191.31;;;29.47;61.19
23223;BME280;11780;13.904;100.620;2023-02-16T08:44:21;101193.78;;;29.49;61.22
23223;BME280;11780;13.904;100.620;2023-02-16T08:46:54;101185.00;;;29.46;61.23
23223;BME280;11780;13.904;100.620;2023-02-16T08:49:24;101177.25;;;29.49;60.87
23223;BME280;11780;13.904;100.620;2023-02-16T08:51:56;101186.50;;;29.53;60.67
23223;BME280;11780;13.904;100.620;2023-02-16T08:54:29;101185.41;;;29.54;60.60
23223;BME280;11780;13.904;100.620;2023-02-16T08:56:59;101187.94;;;29.50;61.13
23223;BME280;11780;13.904;100.620;2023-02-16T08:59:31;101186.03;;;29.51;60.74
23223;BME280;11780;13.904;100.620;2023-02-16T09:02:03;101184.88;;;29.52;60.88
23223;BME280;11780;13.904;100.620;2023-02-16T09:04:33;101187.63;;;29.52;61.15
23223;BME280;11780;13.904;100.620;2023-02-16T09:07:05;101180.19;;;29.52;61.32
23223;BME280;11780;13.904;100.620;2023-02-16T09:09:35;101184.59;;;29.53;61.25
23223;BME280;11780;13.904;100.620;2023-02-16T09:12:08;101179.38;;;29.52;61.67
23223;BME280;11780;13.904;100.620;2023-02-16T09:14:38;101176.59;;;29.52;61.66
23223;BME280;11780;13.904;100.620;2023-02-16T09:17:07;101183.56;;;29.49;61.70
23223;BME280;11780;13.904;100.620;2023-02-16T09:19:37;101184.38;;;29.50;61.27
23223;BME280;11780;13.904;100.620;2023-02-16T09:22:08;101184.06;;;29.51;61.49
23223;BME280;11780;13.904;100.620;2023-02-16T09:24:39;101181.63;;;29.50;61.72
23223;BME280;11780;13.904;100.620;2023-02-16T09:27:09;101188.78;;;29.51;61.56
23223;BME280;11780;13.904;100.620;2023-02-16T09:29:40;101190.69;;;29.50;61.48
23223;BME280;11780;13.904;100.620;2023-02-16T09:32:10;101191.53;;;29.51;61.63
23223;BME280;11780;13.904;100.620;2023-02-16T09:34:40;101197.53;;;29.53;61.38
23223;BME280;11780;13.904;100.620;2023-02-16T09:37:12;101192.03;;;29.53;61.69
23223;BME280;11780;13.904;100.620;2023-02-16T09:39:43;101186.03;;;29.51;61.66
23223;BME280;11780;13.904;100.620;2023-02-16T09:45:06;101199.81;;;29.51;61.68
23223;BME280;11780;13.904;100.620;2023-02-16T09:47:40;101193.97;;;29.52;61.73
23223;BME280;11780;13.904;100.620;2023-02-16T09:50:25;101192.88;;;29.53;61.74
23223;BME280;11780;13.904;100.620;2023-02-16T09:53:39;101196.41;;;29.54;61.91
23223;BME280;11780;13.904;100.620;2023-02-16T09:59:22;101203.56;;;29.55;61.77
23223;BME280;11780;13.904;100.620;2023-02-16T10:05:12;101200.28;;;29.53;61.95
23223;BME280;11780;13.904;100.620;2023-02-16T10:07:56;101199.50;;;29.52;61.98
23223;BME280;11780;13.904;100.620;2023-02-16T10:10:32;101203.38;;;29.51;62.19
23223;BME280;11780;13.904;100.620;2023-02-16T10:16:00;101207.75;;;29.52;62.14
23223;BME280;11780;13.904;100.620;2023-02-16T10:18:36;101202.56;;;29.51;62.15
23223;BME280;11780;13.904;100.620;2023-02-16T10:21:14;101207.44;;;29.54;62.24
23223;BME280;11780;13.904;100.620;2023-02-16T10:26:44;101217.34;;;29.55;62.30
23223;BME280;11780;13.904;100.620;2023-02-16T10:29:20;101223.69;;;29.55;61.98
23223;BME280;11780;13.904;100.620;2023-02-16T10:34:49;101224.50;;;29.56;62.24
23223;BME280;11780;13.904;100.620;2023-02-16T10:42:48;101230.34;;;29.54;62.46
23223;BME280;11780;13.904;100.620;2023-02-16T10:47:55;101232.56;;;29.52;62.59
23223;BME280;11780;13.904;100.620;2023-02-16T10:53:03;101233.38;;;29.53;62.66
23223;BME280;11780;13.904;100.620;2023-02-16T10:55:36;101230.34;;;29.54;62.42
23223;BME280;11780;13.904;100.620;2023-02-16T10:58:19;101235.00;;;29.54;62.57
23223;BME280;11780;13.904;100.620;2023-02-16T11:00:53;101242.69;;;29.57;62.20
23223;BME280;11780;13.904;100.620;2023-02-16T11:03:29;101238.09;;;29.52;62.60
23223;BME280;11780;13.904;100.620;2023-02-16T11:06:16;101250.94;;;29.57;62.33
23223;BME280;11780;13.904;100.620;2023-02-16T11:08:49;101251.56;;;29.54;62.26
23223;BME280;11780;13.904;100.620;2023-02-16T11:11:19;101248.00;;;29.53;62.23
23223;BME280;11780;13.904;100.620;2023-02-16T11:13:59;101258.94;;;29.58;61.83
23223;BME280;11780;13.904;100.620;2023-02-16T11:16:30;101252.38;;;29.54;62.13
23223;BME280;11780;13.904;100.620;2023-02-16T11:19:06;101251.78;;;29.57;62.02
23223;BME280;11780;13.904;100.620;2023-02-16T11:21:43;101254.31;;;29.54;62.25
23223;BME280;11780;13.904;100.620;2023-02-16T11:27:18;101250.53;;;29.50;62.01
23223;BME280;11780;13.904;100.620;2023-02-16T11:29:49;101263.41;;;29.54;62.15
23223;BME280;11780;13.904;100.620;2023-02-16T11:32:19;101249.09;;;29.52;62.37
23223;BME280;11780;13.904;100.620;2023-02-16T11:34:52;101258.19;;;29.53;62.40
23223;BME280;11780;13.904;100.620;2023-02-16T11:37:28;101257.91;;;29.54;62.27
23223;BME280;11780;13.904;100.620;2023-02-16T11:42:39;101264.81;;;29.52;62.34
23223;BME280;11780;13.904;100.620;2023-02-16T11:45:32;101266.44;;;29.53;62.27
23223;BME280;11780;13.904;100.620;2023-02-16T11:48:13;101269.22;;;29.53;62.54
23223;BME280;11780;13.904;100.620;2023-02-16T11:51:08;101270.84;;;29.54;62.34
23223;BME280;11780;13.904;100.620;2023-02-16T11:53:40;101274.44;;;29.54;62.08
23223;BME280;11780;13.904;100.620;2023-02-16T11:56:22;101272.47;;;29.55;62.23
23223;BME280;11780;13.904;100.620;2023-02-16T12:07:20;101288.50;;;29.53;62.21
23223;BME280;11780;13.904;100.620;2023-02-16T12:15:43;101289.84;;;29.55;61.48
23223;BME280;11780;13.904;100.620;2023-02-16T12:18:26;101293.72;;;29.54;61.43
23223;BME280;11780;13.904;100.620;2023-02-16T12:21:23;101298.72;;;29.52;61.34
23223;BME280;11780;13.904;100.620;2023-02-16T12:24:12;101310.34;;;29.49;61.93
23223;BME280;11780;13.904;100.620;2023-02-16T12:26:51;101305.16;;;29.47;62.09
23223;BME280;11780;13.904;100.620;2023-02-16T12:29:35;101313.41;;;29.47;62.32
23223;BME280;11780;13.904;100.620;2023-02-16T12:32:24;101317.50;;;29.50;62.11
23223;BME280;11780;13.904;100.620;2023-02-16T12:35:18;101313.03;;;29.54;62.36
23223;BME280;11780;13.904;100.620;2023-02-16T12:38:06;101320.19;;;29.55;62.75
23223;BME280;11780;13.904;100.620;2023-02-16T12:44:16;101320.97;;;29.56;62.94
23223;BME280;11780;13.904;100.620;2023-02-16T12:46:51;101324.13;;;29.49;63.15
23223;BME280;11780;13.904;100.620;2023-02-16T12:49:33;101323.22;;;29.54;63.07
23223;BME280;11780;13.904;100.620;2023-02-16T12:54:52;101330.97;;;29.52;63.15
23223;BME280;11780;13.904;100.620;2023-02-16T12:57:25;101332.41;;;29.49;63.30
23223;BME280;11780;13.904;100.620;2023-02-16T13:00:23;101339.22;;;29.52;63.13
23223;BME280;11780;13.904;100.620;2023-02-16T13:06:13;101340.88;;;29.53;63.38
23223;BME280;11780;13.904;100.620;2023-02-16T13:09:14;101343.03;;;29.56;63.49
23223;BME280;11780;13.904;100.620;2023-02-16T13:14:37;101355.09;;;29.60;63.05
23223;BME280;11780;13.904;100.620;2023-02-16T13:19:40;101360.25;;;29.67;62.40
23223;BME280;11780;13.904;100.620;2023-02-16T13:34:32;101375.06;;;29.71;62.66
23223;BME280;11780;13.904;100.620;2023-02-16T13:37:24;101392.13;;;29.73;62.43
23223;BME280;11780;13.904;100.620;2023-02-16T13:40:12;101393.84;;;29.69;62.32
23223;BME280;11780;13.904;100.620;2023-02-16T13:45:52;101404.88;;;29.69;62.29
23223;BME280;11780;13.904;100.620;2023-02-16T13:48:50;101398.03;;;29.66;62.18
23223;BME280;11780;13.904;100.620;2023-02-16T13:51:26;101405.53;;;29.60;61.94
23223;BME280;11780;13.904;100.620;2023-02-16T13:54:01;101401.44;;;29.58;62.11
23223;BME280;11780;13.904;100.620;2023-02-16T13:56:37;101402.28;;;29.58;62.09
23223;BME280;11780;13.904;100.620;2023-02-16T14:01:51;101412.47;;;29.58;62.14
23223;BME280;11780;13.904;100.620;2023-02-16T14:14:54;101409.78;;;29.53;62.50
23223;BME280;11780;13.904;100.620;2023-02-16T14:17:33;101425.72;;;29.56;63.08
23223;BME280;11780;13.904;100.620;2023-02-16T14:22:48;101431.25;;;29.56;63.12
23223;BME280;11780;13.904;100.620;2023-02-16T14:25:37;101429.31;;;29.56;63.95
23223;BME280;11780;13.904;100.620;2023-02-16T14:31:12;101433.72;;;29.57;63.27
23223;BME280;11780;13.904;100.620;2023-02-16T14:39:47;101438.63;;;29.60;63.20
23223;BME280;11780;13.904;100.620;2023-02-16T14:42:35;101443.91;;;29.57;63.13
23223;BME280;11780;13.904;100.620;2023-02-16T14:50:46;101447.41;;;29.62;63.43
23223;BME280;11780;13.904;100.620;2023-02-16T14:53:21;101450.47;;;29.61;63.88
23223;BME280;11780;13.904;100.620;2023-02-16T14:59:33;101452.66;;;29.64;63.55
23223;BME280;11780;13.904;100.620;2023-02-16T15:05:17;101448.53;;;29.61;63.41
23223;BME280;11780;13.904;100.620;2023-02-16T15:08:15;101452.94;;;29.62;64.48
23223;BME280;11780;13.904;100.620;2023-02-16T15:10:48;101449.00;;;29.69;64.29
23223;BME280;11780;13.904;100.620;2023-02-16T15:13:27;101448.09;;;29.73;64.62
23223;BME280;11780;13.904;100.620;2023-02-16T15:16:03;101451.44;;;29.70;64.88
23223;BME280;11780;13.904;100.620;2023-02-16T15:18:41;101462.47;;;29.70;64.90
23223;BME280;11780;13.904;100.620;2023-02-16T15:21:18;101458.59;;;29.71;65.06
23223;BME280;11780;13.904;100.620;2023-02-16T15:23:52;101463.53;;;29.74;65.06
23223;BME280;11780;13.904;100.620;2023-02-16T15:26:29;101463.91;;;29.68;65.51
23223;BME280;11780;13.904;100.620;2023-02-16T15:29:03;101465.81;;;29.67;65.87
23223;BME280;11780;13.904;100.620;2023-02-16T15:31:42;101469.19;;;29.64;66.18
23223;BME280;11780;13.904;100.620;2023-02-16T15:34:24;101467.84;;;29.61;65.16
23223;BME280;11780;13.904;100.620;2023-02-16T15:36:56;101469.25;;;29.59;65.51